AFR1440 EGLL-LFPG
Flight info
| Callsign | AFR1440 |
|---|---|
| Flight time | 0h 43m |
| Altitude | 25000 |
| Route | MODMI M185 MID UL612 BOGNA DCT HARDY UM605 BIBAX |
| Aircraft | F28/M-SDFIRWY/H |
Departure
| Time | 2026-05-09 00:49 |
|---|---|
| Airport | London Heathrow Airport (EGLL) |
Arrival
| Time | 2026-05-09 01:33 |
|---|---|
| Airport | Charles de Gaulle International Airport (LFPG) |
| Time | Latitude | Longitude | Altitude | Speed | Heading |
|---|---|---|---|---|---|
| 2026-05-09 00:21 | 51.46926 | -0.48575 | 87 ft | 0 kts | 359° |
| 2026-05-09 00:44 | 51.46913 | -0.48574 | 89 ft | 2 kts | 359° |
| 2026-05-09 00:44 | 51.46901 | -0.48574 | 87 ft | 2 kts | 359° |
| 2026-05-09 00:44 | 51.46888 | -0.48574 | 88 ft | 2 kts | 355° |
| 2026-05-09 00:45 | 51.46878 | -0.48564 | 88 ft | 2 kts | 286° |
| 2026-05-09 00:45 | 51.46877 | -0.48563 | 88 ft | 0 kts | 266° |
| 2026-05-09 00:46 | 51.46877 | -0.48568 | 88 ft | 4 kts | 266° |
| 2026-05-09 00:46 | 51.46876 | -0.48635 | 87 ft | 7 kts | 270° |
| 2026-05-09 00:46 | 51.46876 | -0.48717 | 90 ft | 6 kts | 260° |
| 2026-05-09 00:46 | 51.46837 | -0.48752 | 88 ft | 11 kts | 180° |
| 2026-05-09 00:47 | 51.46778 | -0.48750 | 89 ft | 7 kts | 178° |
| 2026-05-09 00:47 | 51.46733 | -0.48749 | 90 ft | 6 kts | 179° |
| 2026-05-09 00:47 | 51.46692 | -0.48750 | 90 ft | 6 kts | 182° |
| 2026-05-09 00:47 | 51.46639 | -0.48754 | 89 ft | 10 kts | 182° |
| 2026-05-09 00:48 | 51.46600 | -0.48768 | 92 ft | 3 kts | 197° |
| 2026-05-09 00:48 | 51.46550 | -0.48788 | 90 ft | 12 kts | 182° |
| 2026-05-09 00:48 | 51.46488 | -0.48738 | 90 ft | 9 kts | 122° |
| 2026-05-09 00:48 | 51.46476 | -0.48661 | 92 ft | 0 kts | 89° |
| 2026-05-09 00:49 | 51.46477 | -0.48514 | 90 ft | 48 kts | 89° |
| 2026-05-09 00:49 | 51.46485 | -0.47442 | 91 ft | 141 kts | 88° |
| 2026-05-09 00:49 | 51.46498 | -0.45626 | 666 ft | 190 kts | 89° |
| 2026-05-09 00:49 | 51.46522 | -0.43355 | 1777 ft | 212 kts | 90° |
| 2026-05-09 00:50 | 51.46190 | -0.41120 | 3192 ft | 204 kts | 114° |
| 2026-05-09 00:50 | 51.45566 | -0.39049 | 4478 ft | 212 kts | 122° |
| 2026-05-09 00:50 | 51.44418 | -0.37488 | 5447 ft | 229 kts | 156° |
| 2026-05-09 00:50 | 51.42879 | -0.36576 | 5839 ft | 241 kts | 161° |
| 2026-05-09 00:51 | 51.41250 | -0.35780 | 5967 ft | 246 kts | 168° |
| 2026-05-09 00:51 | 51.39550 | -0.35946 | 6011 ft | 256 kts | 196° |
| 2026-05-09 00:51 | 51.37838 | -0.36998 | 6021 ft | 270 kts | 202° |
| 2026-05-09 00:51 | 51.36071 | -0.38304 | 6024 ft | 290 kts | 204° |
| 2026-05-09 00:52 | 51.34188 | -0.39774 | 6025 ft | 311 kts | 205° |
| 2026-05-09 00:52 | 51.32186 | -0.41333 | 6027 ft | 328 kts | 205° |
| 2026-05-09 00:52 | 51.30091 | -0.43016 | 6024 ft | 344 kts | 206° |
| 2026-05-09 00:52 | 51.27992 | -0.44724 | 6020 ft | 332 kts | 206° |
| 2026-05-09 00:53 | 51.26009 | -0.46337 | 6003 ft | 309 kts | 206° |
| 2026-05-09 00:53 | 51.24144 | -0.47849 | 5990 ft | 291 kts | 206° |
| 2026-05-09 00:53 | 51.22375 | -0.49273 | 5981 ft | 278 kts | 205° |
| 2026-05-09 00:53 | 51.20665 | -0.50618 | 5983 ft | 270 kts | 205° |
| 2026-05-09 00:54 | 51.19017 | -0.51903 | 5976 ft | 264 kts | 205° |
| 2026-05-09 00:54 | 51.17378 | -0.53174 | 5998 ft | 265 kts | 205° |
| 2026-05-09 00:54 | 51.15733 | -0.54444 | 6946 ft | 260 kts | 205° |
| 2026-05-09 00:54 | 51.14097 | -0.55699 | 7732 ft | 262 kts | 205° |
| 2026-05-09 00:55 | 51.12448 | -0.56963 | 8520 ft | 264 kts | 205° |
| 2026-05-09 00:55 | 51.10786 | -0.58250 | 9327 ft | 266 kts | 206° |
| 2026-05-09 00:55 | 51.09109 | -0.59549 | 10134 ft | 269 kts | 206° |
| 2026-05-09 00:55 | 51.07451 | -0.60825 | 10834 ft | 272 kts | 206° |
| 2026-05-09 00:56 | 51.05666 | -0.61746 | 11536 ft | 277 kts | 185° |
| 2026-05-09 00:56 | 51.03765 | -0.61241 | 12243 ft | 283 kts | 157° |
| 2026-05-09 00:56 | 51.02050 | -0.59628 | 12949 ft | 289 kts | 147° |
| 2026-05-09 00:56 | 51.00389 | -0.57752 | 13649 ft | 294 kts | 145° |
| 2026-05-09 00:57 | 50.98751 | -0.55812 | 14293 ft | 298 kts | 144° |
| 2026-05-09 00:57 | 50.97078 | -0.53832 | 14905 ft | 301 kts | 145° |
| 2026-05-09 00:57 | 50.95370 | -0.51854 | 15497 ft | 305 kts | 146° |
| 2026-05-09 00:57 | 50.93630 | -0.49890 | 16093 ft | 309 kts | 146° |
| 2026-05-09 00:58 | 50.91850 | -0.47937 | 16678 ft | 313 kts | 147° |
| 2026-05-09 00:58 | 50.90041 | -0.45986 | 17253 ft | 316 kts | 147° |
| 2026-05-09 00:58 | 50.88224 | -0.44040 | 17824 ft | 320 kts | 147° |
| 2026-05-09 00:58 | 50.86366 | -0.42059 | 18396 ft | 323 kts | 147° |
| 2026-05-09 00:59 | 50.84496 | -0.40070 | 18925 ft | 324 kts | 148° |
| 2026-05-09 00:59 | 50.82623 | -0.38081 | 19480 ft | 324 kts | 148° |
| 2026-05-09 00:59 | 50.80737 | -0.36107 | 20025 ft | 325 kts | 148° |
| 2026-05-09 00:59 | 50.78847 | -0.34144 | 20552 ft | 326 kts | 148° |
| 2026-05-09 01:00 | 50.76946 | -0.32155 | 21070 ft | 326 kts | 148° |
| 2026-05-09 01:00 | 50.75054 | -0.30157 | 21586 ft | 327 kts | 148° |
| 2026-05-09 01:00 | 50.73174 | -0.28185 | 22080 ft | 328 kts | 148° |
| 2026-05-09 01:00 | 50.71331 | -0.26097 | 22541 ft | 332 kts | 138° |
| 2026-05-09 01:01 | 50.69885 | -0.23231 | 23035 ft | 336 kts | 126° |
| 2026-05-09 01:01 | 50.68681 | -0.20049 | 23490 ft | 339 kts | 121° |
| 2026-05-09 01:01 | 50.67581 | -0.16728 | 23895 ft | 342 kts | 119° |
| 2026-05-09 01:01 | 50.66539 | -0.13345 | 24255 ft | 344 kts | 118° |
| 2026-05-09 01:02 | 50.65518 | -0.09924 | 24612 ft | 346 kts | 118° |
| 2026-05-09 01:02 | 50.64506 | -0.06518 | 24982 ft | 346 kts | 118° |
| 2026-05-09 01:02 | 50.63467 | -0.03091 | 25369 ft | 347 kts | 118° |
| 2026-05-09 01:02 | 50.62413 | 0.00344 | 25656 ft | 350 kts | 118° |
| 2026-05-09 01:03 | 50.61336 | 0.03804 | 25829 ft | 351 kts | 118° |
| 2026-05-09 01:03 | 50.60273 | 0.07242 | 25842 ft | 347 kts | 118° |
| 2026-05-09 01:03 | 50.59235 | 0.10592 | 25824 ft | 330 kts | 118° |
| 2026-05-09 01:03 | 50.58257 | 0.13742 | 25804 ft | 316 kts | 118° |
| 2026-05-09 01:04 | 50.57296 | 0.16841 | 25790 ft | 319 kts | 118° |
| 2026-05-09 01:04 | 50.56298 | 0.20037 | 25799 ft | 333 kts | 118° |
| 2026-05-09 01:04 | 50.55278 | 0.23291 | 25597 ft | 330 kts | 118° |
| 2026-05-09 01:04 | 50.54267 | 0.26517 | 25407 ft | 328 kts | 119° |
| 2026-05-09 01:05 | 50.53260 | 0.29729 | 25288 ft | 327 kts | 119° |
| 2026-05-09 01:05 | 50.52266 | 0.32898 | 25173 ft | 326 kts | 119° |
| 2026-05-09 01:05 | 50.50249 | 0.39323 | 25113 ft | 338 kts | 119° |
| 2026-05-09 01:06 | 50.49186 | 0.42686 | 25119 ft | 352 kts | 119° |
| 2026-05-09 01:06 | 50.48034 | 0.46085 | 25116 ft | 364 kts | 125° |
| 2026-05-09 01:06 | 50.46467 | 0.49268 | 25115 ft | 374 kts | 134° |
| 2026-05-09 01:06 | 50.44610 | 0.52234 | 25123 ft | 385 kts | 139° |
| 2026-05-09 01:07 | 50.42621 | 0.55009 | 25127 ft | 394 kts | 141° |
| 2026-05-09 01:07 | 50.40478 | 0.57795 | 25127 ft | 404 kts | 142° |
| 2026-05-09 01:07 | 50.38252 | 0.60560 | 25127 ft | 412 kts | 143° |
| 2026-05-09 01:07 | 50.35977 | 0.63367 | 25124 ft | 420 kts | 143° |
| 2026-05-09 01:08 | 50.33653 | 0.66230 | 25120 ft | 427 kts | 143° |
| 2026-05-09 01:08 | 50.31299 | 0.69127 | 25110 ft | 433 kts | 143° |
| 2026-05-09 01:08 | 50.28947 | 0.72038 | 25109 ft | 439 kts | 142° |
| 2026-05-09 01:08 | 50.26548 | 0.75054 | 25114 ft | 444 kts | 142° |
| 2026-05-09 01:09 | 50.24138 | 0.78092 | 25113 ft | 442 kts | 142° |
| 2026-05-09 01:09 | 50.21762 | 0.81047 | 25104 ft | 424 kts | 143° |
| 2026-05-09 01:09 | 50.19524 | 0.83814 | 25096 ft | 409 kts | 143° |
| 2026-05-09 01:09 | 50.17327 | 0.86533 | 25090 ft | 395 kts | 142° |
| 2026-05-09 01:10 | 50.15217 | 0.89180 | 25086 ft | 383 kts | 142° |
| 2026-05-09 01:10 | 50.13162 | 0.91729 | 25071 ft | 372 kts | 142° |
| 2026-05-09 01:10 | 50.11153 | 0.94219 | 25074 ft | 363 kts | 142° |
| 2026-05-09 01:10 | 50.09203 | 0.96654 | 25076 ft | 355 kts | 142° |
| 2026-05-09 01:11 | 50.07318 | 0.98997 | 25079 ft | 347 kts | 143° |
| 2026-05-09 01:11 | 50.05358 | 1.01087 | 25081 ft | 340 kts | 150° |
| 2026-05-09 01:11 | 50.03311 | 1.02856 | 25084 ft | 333 kts | 153° |
| 2026-05-09 01:11 | 50.01246 | 1.04469 | 25085 ft | 328 kts | 155° |
| 2026-05-09 01:12 | 49.99197 | 1.05993 | 25089 ft | 323 kts | 156° |
| 2026-05-09 01:12 | 49.97171 | 1.07468 | 25090 ft | 319 kts | 156° |
| 2026-05-09 01:12 | 49.95193 | 1.08906 | 25083 ft | 315 kts | 155° |
| 2026-05-09 01:12 | 49.93220 | 1.10353 | 25075 ft | 312 kts | 155° |
| 2026-05-09 01:13 | 49.91230 | 1.11818 | 25071 ft | 322 kts | 155° |
| 2026-05-09 01:13 | 49.89154 | 1.13350 | 25091 ft | 336 kts | 155° |
| 2026-05-09 01:13 | 49.87035 | 1.14944 | 25110 ft | 347 kts | 155° |
| 2026-05-09 01:13 | 49.84872 | 1.16583 | 25088 ft | 343 kts | 155° |
| 2026-05-09 01:14 | 49.82717 | 1.18189 | 24857 ft | 342 kts | 155° |
| 2026-05-09 01:14 | 49.80569 | 1.19777 | 24582 ft | 341 kts | 155° |
| 2026-05-09 01:14 | 49.78432 | 1.21371 | 24231 ft | 339 kts | 155° |
| 2026-05-09 01:14 | 49.76331 | 1.22935 | 23968 ft | 338 kts | 155° |
| 2026-05-09 01:15 | 49.74212 | 1.24505 | 23699 ft | 336 kts | 155° |
| 2026-05-09 01:15 | 49.72108 | 1.26088 | 23421 ft | 334 kts | 155° |
| 2026-05-09 01:15 | 49.70021 | 1.27642 | 23106 ft | 333 kts | 155° |
| 2026-05-09 01:15 | 49.67926 | 1.29192 | 22782 ft | 332 kts | 155° |
| 2026-05-09 01:16 | 49.65843 | 1.30729 | 22483 ft | 331 kts | 155° |
| 2026-05-09 01:16 | 49.63800 | 1.32239 | 22190 ft | 328 kts | 155° |
| 2026-05-09 01:16 | 49.61736 | 1.33766 | 21891 ft | 327 kts | 155° |
| 2026-05-09 01:17 | 49.57666 | 1.36787 | 21276 ft | 322 kts | 155° |
| 2026-05-09 01:17 | 49.55652 | 1.38289 | 20981 ft | 320 kts | 155° |
| 2026-05-09 01:17 | 49.53652 | 1.39785 | 20693 ft | 319 kts | 155° |
| 2026-05-09 01:17 | 49.51657 | 1.41273 | 20380 ft | 318 kts | 156° |
| 2026-05-09 01:18 | 49.49680 | 1.42724 | 20013 ft | 319 kts | 156° |
| 2026-05-09 01:18 | 49.47664 | 1.44195 | 19652 ft | 321 kts | 156° |
| 2026-05-09 01:18 | 49.45639 | 1.45673 | 19282 ft | 322 kts | 156° |
| 2026-05-09 01:18 | 49.43610 | 1.47161 | 18941 ft | 323 kts | 156° |
| 2026-05-09 01:19 | 49.41580 | 1.48654 | 18596 ft | 324 kts | 156° |
| 2026-05-09 01:19 | 49.39542 | 1.50159 | 18233 ft | 325 kts | 156° |
| 2026-05-09 01:19 | 49.37507 | 1.51665 | 17832 ft | 325 kts | 156° |
| 2026-05-09 01:19 | 49.35469 | 1.53171 | 17435 ft | 325 kts | 156° |
| 2026-05-09 01:20 | 49.33464 | 1.54648 | 17044 ft | 324 kts | 156° |
| 2026-05-09 01:20 | 49.31449 | 1.56223 | 16615 ft | 325 kts | 148° |
| 2026-05-09 01:20 | 49.29868 | 1.58673 | 16131 ft | 326 kts | 123° |
| 2026-05-09 01:20 | 49.29059 | 1.61899 | 15654 ft | 326 kts | 99° |
| 2026-05-09 01:21 | 49.28958 | 1.65361 | 15197 ft | 324 kts | 90° |
| 2026-05-09 01:21 | 49.29010 | 1.68810 | 14741 ft | 323 kts | 89° |
| 2026-05-09 01:21 | 49.29062 | 1.72215 | 14286 ft | 323 kts | 90° |
| 2026-05-09 01:21 | 49.28821 | 1.75626 | 13830 ft | 320 kts | 109° |
| 2026-05-09 01:22 | 49.27771 | 1.78597 | 13322 ft | 316 kts | 128° |
| 2026-05-09 01:22 | 49.26386 | 1.81196 | 12838 ft | 313 kts | 133° |
| 2026-05-09 01:22 | 49.24931 | 1.83666 | 12358 ft | 312 kts | 134° |
| 2026-05-09 01:22 | 49.23450 | 1.86093 | 11824 ft | 312 kts | 135° |
| 2026-05-09 01:23 | 49.21961 | 1.88528 | 11121 ft | 319 kts | 135° |
| 2026-05-09 01:23 | 49.20447 | 1.91023 | 10374 ft | 319 kts | 134° |
| 2026-05-09 01:23 | 49.18944 | 1.93537 | 9624 ft | 319 kts | 134° |
| 2026-05-09 01:23 | 49.17477 | 1.96009 | 8890 ft | 316 kts | 133° |
| 2026-05-09 01:24 | 49.16020 | 1.98488 | 8251 ft | 311 kts | 133° |
| 2026-05-09 01:24 | 49.14590 | 2.00922 | 7628 ft | 306 kts | 133° |
| 2026-05-09 01:24 | 49.13179 | 2.03326 | 7008 ft | 301 kts | 132° |
| 2026-05-09 01:24 | 49.11800 | 2.05693 | 6431 ft | 295 kts | 131° |
| 2026-05-09 01:25 | 49.10459 | 2.07989 | 6061 ft | 285 kts | 131° |
| 2026-05-09 01:25 | 49.09159 | 2.10205 | 5706 ft | 273 kts | 131° |
| 2026-05-09 01:25 | 49.07912 | 2.12325 | 5369 ft | 263 kts | 131° |
| 2026-05-09 01:25 | 49.06779 | 2.14268 | 5075 ft | 227 kts | 131° |
| 2026-05-09 01:26 | 49.06106 | 2.15428 | 4899 ft | 212 kts | 131° |
| 2026-05-09 01:26 | 49.04872 | 2.17550 | 4549 ft | 185 kts | 131° |
| 2026-05-09 01:26 | 49.04044 | 2.18955 | 4327 ft | 174 kts | 131° |
| 2026-05-09 01:26 | 49.03509 | 2.19857 | 4200 ft | 171 kts | 131° |
| 2026-05-09 01:27 | 49.02732 | 2.21170 | 4023 ft | 163 kts | 131° |
| 2026-05-09 01:27 | 49.01982 | 2.22434 | 3883 ft | 157 kts | 132° |
| 2026-05-09 01:27 | 49.01268 | 2.23665 | 3759 ft | 154 kts | 126° |
| 2026-05-09 01:27 | 49.00989 | 2.25178 | 3614 ft | 151 kts | 92° |
| 2026-05-09 01:28 | 49.01001 | 2.26775 | 3482 ft | 150 kts | 88° |
| 2026-05-09 01:28 | 49.01072 | 2.28331 | 3336 ft | 145 kts | 85° |
| 2026-05-09 01:28 | 49.01172 | 2.29857 | 3173 ft | 144 kts | 84° |
| 2026-05-09 01:28 | 49.01277 | 2.31361 | 2980 ft | 144 kts | 85° |
| 2026-05-09 01:29 | 49.01379 | 2.32861 | 2791 ft | 146 kts | 85° |
| 2026-05-09 01:29 | 49.01483 | 2.34430 | 2608 ft | 146 kts | 85° |
| 2026-05-09 01:29 | 49.01573 | 2.35895 | 2410 ft | 134 kts | 85° |
| 2026-05-09 01:29 | 49.01653 | 2.37236 | 2208 ft | 121 kts | 86° |
| 2026-05-09 01:30 | 49.01724 | 2.38457 | 2033 ft | 110 kts | 86° |
| 2026-05-09 01:30 | 49.01790 | 2.39588 | 1833 ft | 106 kts | 86° |
| 2026-05-09 01:30 | 49.01853 | 2.40729 | 1699 ft | 104 kts | 86° |
| 2026-05-09 01:30 | 49.01914 | 2.41896 | 1650 ft | 117 kts | 86° |
| 2026-05-09 01:31 | 49.01979 | 2.43150 | 1507 ft | 119 kts | 86° |
| 2026-05-09 01:31 | 49.02043 | 2.44390 | 1329 ft | 113 kts | 86° |
| 2026-05-09 01:31 | 49.02101 | 2.45544 | 1169 ft | 105 kts | 85° |
| 2026-05-09 01:31 | 49.02155 | 2.46638 | 1028 ft | 105 kts | 85° |
| 2026-05-09 01:32 | 49.02212 | 2.47748 | 928 ft | 101 kts | 80° |
| 2026-05-09 01:32 | 49.02300 | 2.48753 | 800 ft | 91 kts | 85° |
| 2026-05-09 01:32 | 49.02352 | 2.49664 | 674 ft | 86 kts | 78° |
| 2026-05-09 01:32 | 49.02397 | 2.50603 | 586 ft | 92 kts | 82° |
| 2026-05-09 01:33 | 49.02433 | 2.51537 | 435 ft | 78 kts | 84° |
| 2026-05-09 01:33 | 49.02450 | 2.51913 | 352 ft | 0 kts | 85° |